< < Back
Terminal Aerodrome Forecast


Current Version              Previous Versions:   1  2  3  4  5  6  7  8  9  

Terminal Aerodrome Forecast

761
FTUS42 KTAE 121733
TAFTLH
TAF
KTLH 121733Z 1218/1318 26015G27KT P6SM SCT030
     FM130100 29005KT P6SM SKC
     FM131500 36011G18KT P6SM SKC=



Latest METAR

691
SAUS80 KWBC 122000
MTRTLH
METAR KTLH 121953Z 26016G26KT 10SM FEW065 25/08 A3010 RMK AO2 PK WND
28029/1923 SLP191 T02500083


USA.gov is the U.S. government's official web portal to all federal, state and local government web resources and services.